sensor_id;sensor_type;location;lat;lon;timestamp;P1;durP1;ratioP1;P2;durP2;ratioP2
23614;SDS011;11985;49.404;7.734;2023-04-03T00:04:57;4.22;;;2.92;;
23614;SDS011;11985;49.404;7.734;2023-04-03T00:09:58;5.28;;;2.80;;
23614;SDS011;11985;49.404;7.734;2023-04-03T00:15:00;4.85;;;3.30;;
23614;SDS011;11985;49.404;7.734;2023-04-03T00:20:03;6.70;;;3.20;;
23614;SDS011;11985;49.404;7.734;2023-04-03T00:25:06;4.80;;;3.28;;
23614;SDS011;11985;49.404;7.734;2023-04-03T00:30:09;4.80;;;2.75;;
23614;SDS011;11985;49.404;7.734;2023-04-03T00:35:15;5.28;;;2.78;;
23614;SDS011;11985;49.404;7.734;2023-04-03T00:40:17;10.32;;;3.08;;
23614;SDS011;11985;49.404;7.734;2023-04-03T00:45:29;6.15;;;2.88;;
23614;SDS011;11985;49.404;7.734;2023-04-03T00:50:35;4.85;;;2.35;;
23614;SDS011;11985;49.404;7.734;2023-04-03T00:55:39;6.68;;;2.90;;
23614;SDS011;11985;49.404;7.734;2023-04-03T01:00:42;4.68;;;2.67;;
23614;SDS011;11985;49.404;7.734;2023-04-03T01:05:49;5.15;;;2.92;;
23614;SDS011;11985;49.404;7.734;2023-04-03T01:10:51;4.03;;;2.95;;
23614;SDS011;11985;49.404;7.734;2023-04-03T01:15:53;8.15;;;3.10;;
23614;SDS011;11985;49.404;7.734;2023-04-03T01:26:31;5.57;;;2.83;;
23614;SDS011;11985;49.404;7.734;2023-04-03T01:31:47;5.03;;;2.90;;
23614;SDS011;11985;49.404;7.734;2023-04-03T01:36:50;13.88;;;3.10;;
23614;SDS011;11985;49.404;7.734;2023-04-03T01:41:52;7.22;;;3.30;;
23614;SDS011;11985;49.404;7.734;2023-04-03T01:46:55;9.63;;;2.88;;
23614;SDS011;11985;49.404;7.734;2023-04-03T01:51:57;5.05;;;2.85;;
23614;SDS011;11985;49.404;7.734;2023-04-03T01:56:58;6.75;;;3.55;;
23614;SDS011;11985;49.404;7.734;2023-04-03T02:02:01;6.90;;;2.97;;
23614;SDS011;11985;49.404;7.734;2023-04-03T02:07:03;7.57;;;3.15;;
23614;SDS011;11985;49.404;7.734;2023-04-03T02:12:04;6.03;;;3.00;;
23614;SDS011;11985;49.404;7.734;2023-04-03T02:17:08;9.50;;;3.50;;
23614;SDS011;11985;49.404;7.734;2023-04-03T02:22:09;4.82;;;3.15;;
23614;SDS011;11985;49.404;7.734;2023-04-03T02:27:11;5.40;;;2.83;;
23614;SDS011;11985;49.404;7.734;2023-04-03T02:32:14;8.27;;;3.55;;
23614;SDS011;11985;49.404;7.734;2023-04-03T02:37:15;4.25;;;2.95;;
23614;SDS011;11985;49.404;7.734;2023-04-03T02:42:17;5.03;;;3.47;;
23614;SDS011;11985;49.404;7.734;2023-04-03T02:47:20;9.48;;;3.60;;
23614;SDS011;11985;49.404;7.734;2023-04-03T02:52:21;4.18;;;3.10;;
23614;SDS011;11985;49.404;7.734;2023-04-03T02:57:23;6.38;;;3.10;;
23614;SDS011;11985;49.404;7.734;2023-04-03T03:02:26;5.60;;;2.92;;
23614;SDS011;11985;49.404;7.734;2023-04-03T03:07:27;7.13;;;3.42;;
23614;SDS011;11985;49.404;7.734;2023-04-03T03:12:29;6.70;;;3.28;;
23614;SDS011;11985;49.404;7.734;2023-04-03T03:17:32;6.95;;;3.25;;
23614;SDS011;11985;49.404;7.734;2023-04-03T03:22:34;4.85;;;3.17;;
23614;SDS011;11985;49.404;7.734;2023-04-03T03:27:36;4.65;;;2.97;;
23614;SDS011;11985;49.404;7.734;2023-04-03T03:32:39;8.25;;;3.10;;
23614;SDS011;11985;49.404;7.734;2023-04-03T03:37:40;5.68;;;3.20;;
23614;SDS011;11985;49.404;7.734;2023-04-03T03:42:42;4.38;;;2.90;;
23614;SDS011;11985;49.404;7.734;2023-04-03T03:47:45;3.60;;;2.30;;
23614;SDS011;11985;49.404;7.734;2023-04-03T03:52:46;3.03;;;2.38;;
23614;SDS011;11985;49.404;7.734;2023-04-03T03:57:48;5.45;;;3.13;;
23614;SDS011;11985;49.404;7.734;2023-04-03T04:02:50;4.13;;;2.67;;
23614;SDS011;11985;49.404;7.734;2023-04-03T04:07:52;5.63;;;2.47;;
23614;SDS011;11985;49.404;7.734;2023-04-03T04:12:53;3.40;;;2.17;;
23614;SDS011;11985;49.404;7.734;2023-04-03T04:17:56;4.53;;;2.65;;
23614;SDS011;11985;49.404;7.734;2023-04-03T04:22:58;2.70;;;1.90;;
23614;SDS011;11985;49.404;7.734;2023-04-03T04:27:59;4.72;;;2.60;;
23614;SDS011;11985;49.404;7.734;2023-04-03T04:33:02;3.60;;;2.17;;
23614;SDS011;11985;49.404;7.734;2023-04-03T04:38:03;4.25;;;2.17;;
23614;SDS011;11985;49.404;7.734;2023-04-03T04:43:05;4.05;;;2.47;;
23614;SDS011;11985;49.404;7.734;2023-04-03T04:48:08;7.05;;;2.42;;
23614;SDS011;11985;49.404;7.734;2023-04-03T04:53:10;6.05;;;2.30;;
23614;SDS011;11985;49.404;7.734;2023-04-03T04:58:11;2.72;;;1.80;;
23614;SDS011;11985;49.404;7.734;2023-04-03T05:03:14;6.13;;;2.47;;
23614;SDS011;11985;49.404;7.734;2023-04-03T05:08:16;4.22;;;2.40;;
23614;SDS011;11985;49.404;7.734;2023-04-03T05:13:18;3.90;;;2.17;;
23614;SDS011;11985;49.404;7.734;2023-04-03T05:18:21;4.90;;;2.03;;
23614;SDS011;11985;49.404;7.734;2023-04-03T05:23:22;6.63;;;3.42;;
23614;SDS011;11985;49.404;7.734;2023-04-03T05:28:24;9.68;;;2.28;;
23614;SDS011;11985;49.404;7.734;2023-04-03T05:33:27;4.70;;;2.90;;
23614;SDS011;11985;49.404;7.734;2023-04-03T05:38:28;4.75;;;2.45;;
23614;SDS011;11985;49.404;7.734;2023-04-03T05:43:30;5.60;;;2.00;;
23614;SDS011;11985;49.404;7.734;2023-04-03T05:48:34;4.45;;;2.45;;
23614;SDS011;11985;49.404;7.734;2023-04-03T05:53:35;3.22;;;2.20;;
23614;SDS011;11985;49.404;7.734;2023-04-03T05:58:38;9.23;;;3.47;;
23614;SDS011;11985;49.404;7.734;2023-04-03T06:03:40;15.18;;;4.07;;
23614;SDS011;11985;49.404;7.734;2023-04-03T06:08:42;6.25;;;2.63;;
23614;SDS011;11985;49.404;7.734;2023-04-03T06:13:44;3.75;;;2.38;;
23614;SDS011;11985;49.404;7.734;2023-04-03T06:18:47;3.30;;;2.17;;
23614;SDS011;11985;49.404;7.734;2023-04-03T06:23:49;4.28;;;2.25;;
23614;SDS011;11985;49.404;7.734;2023-04-03T06:28:51;8.50;;;2.60;;
23614;SDS011;11985;49.404;7.734;2023-04-03T06:33:54;7.85;;;2.53;;
23614;SDS011;11985;49.404;7.734;2023-04-03T06:38:56;5.15;;;2.50;;
23614;SDS011;11985;49.404;7.734;2023-04-03T06:43:57;4.57;;;2.58;;
23614;SDS011;11985;49.404;7.734;2023-04-03T06:49:00;6.25;;;2.67;;
23614;SDS011;11985;49.404;7.734;2023-04-03T06:54:02;6.82;;;2.25;;
23614;SDS011;11985;49.404;7.734;2023-04-03T06:59:05;6.82;;;2.28;;
23614;SDS011;11985;49.404;7.734;2023-04-03T07:04:08;3.92;;;2.25;;
23614;SDS011;11985;49.404;7.734;2023-04-03T07:09:10;4.53;;;2.17;;
23614;SDS011;11985;49.404;7.734;2023-04-03T07:14:12;12.40;;;2.75;;
23614;SDS011;11985;49.404;7.734;2023-04-03T07:19:15;6.85;;;2.17;;
23614;SDS011;11985;49.404;7.734;2023-04-03T07:24:18;7.38;;;2.35;;
23614;SDS011;11985;49.404;7.734;2023-04-03T07:29:19;7.72;;;2.67;;
23614;SDS011;11985;49.404;7.734;2023-04-03T07:34:22;8.07;;;2.25;;
23614;SDS011;11985;49.404;7.734;2023-04-03T07:39:24;5.68;;;1.92;;
23614;SDS011;11985;49.404;7.734;2023-04-03T07:44:26;7.28;;;2.60;;
23614;SDS011;11985;49.404;7.734;2023-04-03T07:49:28;10.10;;;2.83;;
23614;SDS011;11985;49.404;7.734;2023-04-03T07:54:31;7.63;;;2.35;;
23614;SDS011;11985;49.404;7.734;2023-04-03T07:59:32;10.88;;;2.67;;
23614;SDS011;11985;49.404;7.734;2023-04-03T08:04:35;7.18;;;2.17;;
23614;SDS011;11985;49.404;7.734;2023-04-03T08:09:37;6.88;;;2.40;;
23614;SDS011;11985;49.404;7.734;2023-04-03T08:14:38;5.03;;;2.03;;
23614;SDS011;11985;49.404;7.734;2023-04-03T08:19:42;7.57;;;2.33;;
23614;SDS011;11985;49.404;7.734;2023-04-03T08:24:43;3.42;;;2.28;;
23614;SDS011;11985;49.404;7.734;2023-04-03T08:29:45;3.38;;;1.92;;
23614;SDS011;11985;49.404;7.734;2023-04-03T08:34:48;4.20;;;1.88;;
23614;SDS011;11985;49.404;7.734;2023-04-03T08:39:49;4.22;;;2.10;;
23614;SDS011;11985;49.404;7.734;2023-04-03T08:44:52;4.68;;;1.55;;
23614;SDS011;11985;49.404;7.734;2023-04-03T08:50:02;7.13;;;1.92;;
23614;SDS011;11985;49.404;7.734;2023-04-03T08:55:07;7.30;;;2.13;;
23614;SDS011;11985;49.404;7.734;2023-04-03T09:00:19;6.00;;;1.80;;
23614;SDS011;11985;49.404;7.734;2023-04-03T09:10:32;6.93;;;1.98;;
23614;SDS011;11985;49.404;7.734;2023-04-03T09:15:38;4.10;;;2.00;;
23614;SDS011;11985;49.404;7.734;2023-04-03T09:20:43;3.28;;;1.95;;
23614;SDS011;11985;49.404;7.734;2023-04-03T09:25:47;10.52;;;2.20;;
23614;SDS011;11985;49.404;7.734;2023-04-03T09:30:50;5.95;;;1.83;;
23614;SDS011;11985;49.404;7.734;2023-04-03T09:35:53;4.32;;;1.90;;
23614;SDS011;11985;49.404;7.734;2023-04-03T09:41:02;5.13;;;1.88;;
23614;SDS011;11985;49.404;7.734;2023-04-03T09:46:16;5.75;;;2.10;;
23614;SDS011;11985;49.404;7.734;2023-04-03T09:51:21;7.22;;;2.38;;
23614;SDS011;11985;49.404;7.734;2023-04-03T09:56:27;6.35;;;1.67;;
23614;SDS011;11985;49.404;7.734;2023-04-03T10:01:31;10.73;;;4.28;;
23614;SDS011;11985;49.404;7.734;2023-04-03T10:06:36;3.97;;;2.25;;
23614;SDS011;11985;49.404;7.734;2023-04-03T10:11:41;3.08;;;2.20;;
23614;SDS011;11985;49.404;7.734;2023-04-03T10:17:01;3.50;;;1.58;;
23614;SDS011;11985;49.404;7.734;2023-04-03T10:22:11;3.80;;;2.30;;
23614;SDS011;11985;49.404;7.734;2023-04-03T10:27:24;2.92;;;1.23;;
23614;SDS011;11985;49.404;7.734;2023-04-03T10:32:45;3.20;;;2.10;;
23614;SDS011;11985;49.404;7.734;2023-04-03T10:38:03;8.05;;;2.22;;
23614;SDS011;11985;49.404;7.734;2023-04-03T10:43:13;6.03;;;1.95;;
23614;SDS011;11985;49.404;7.734;2023-04-03T10:48:23;13.05;;;4.75;;
23614;SDS011;11985;49.404;7.734;2023-04-03T10:53:51;6.18;;;2.13;;
23614;SDS011;11985;49.404;7.734;2023-04-03T10:58:58;8.05;;;2.78;;
23614;SDS011;11985;49.404;7.734;2023-04-03T11:04:04;4.65;;;1.50;;
23614;SDS011;11985;49.404;7.734;2023-04-03T11:09:11;1.48;;;1.20;;
23614;SDS011;11985;49.404;7.734;2023-04-03T11:14:22;4.47;;;1.75;;
23614;SDS011;11985;49.404;7.734;2023-04-03T11:19:29;5.28;;;1.75;;
23614;SDS011;11985;49.404;7.734;2023-04-03T11:24:38;5.10;;;1.52;;
23614;SDS011;11985;49.404;7.734;2023-04-03T11:29:43;5.05;;;1.83;;
23614;SDS011;11985;49.404;7.734;2023-04-03T11:34:47;11.27;;;1.70;;
23614;SDS011;11985;49.404;7.734;2023-04-03T11:39:54;3.42;;;1.52;;
23614;SDS011;11985;49.404;7.734;2023-04-03T11:50:39;5.35;;;1.95;;
23614;SDS011;11985;49.404;7.734;2023-04-03T11:55:45;6.97;;;1.77;;
23614;SDS011;11985;49.404;7.734;2023-04-03T12:01:04;6.53;;;2.00;;
23614;SDS011;11985;49.404;7.734;2023-04-03T12:11:59;2.30;;;1.55;;
23614;SDS011;11985;49.404;7.734;2023-04-03T12:17:02;4.07;;;1.63;;
23614;SDS011;11985;49.404;7.734;2023-04-03T12:22:20;1.73;;;1.17;;
23614;SDS011;11985;49.404;7.734;2023-04-03T12:27:28;4.25;;;1.52;;
23614;SDS011;11985;49.404;7.734;2023-04-03T12:32:36;4.28;;;1.80;;
23614;SDS011;11985;49.404;7.734;2023-04-03T12:38:01;3.83;;;1.30;;
23614;SDS011;11985;49.404;7.734;2023-04-03T12:43:28;4.82;;;2.35;;
23614;SDS011;11985;49.404;7.734;2023-04-03T12:48:48;5.95;;;2.22;;
23614;SDS011;11985;49.404;7.734;2023-04-03T12:53:51;3.30;;;1.40;;
23614;SDS011;11985;49.404;7.734;2023-04-03T13:04:16;9.20;;;3.75;;
23614;SDS011;11985;49.404;7.734;2023-04-03T13:09:19;3.58;;;1.77;;
23614;SDS011;11985;49.404;7.734;2023-04-03T13:14:24;4.47;;;2.20;;
23614;SDS011;11985;49.404;7.734;2023-04-03T13:19:28;5.78;;;2.35;;
23614;SDS011;11985;49.404;7.734;2023-04-03T13:24:29;5.40;;;2.60;;
23614;SDS011;11985;49.404;7.734;2023-04-03T13:29:35;6.50;;;1.73;;
23614;SDS011;11985;49.404;7.734;2023-04-03T13:34:41;5.25;;;1.88;;
23614;SDS011;11985;49.404;7.734;2023-04-03T13:39:44;9.23;;;4.37;;
23614;SDS011;11985;49.404;7.734;2023-04-03T13:44:46;3.85;;;2.25;;
23614;SDS011;11985;49.404;7.734;2023-04-03T13:49:59;4.93;;;1.90;;
23614;SDS011;11985;49.404;7.734;2023-04-03T13:55:15;3.75;;;1.67;;
23614;SDS011;11985;49.404;7.734;2023-04-03T14:00:22;5.78;;;1.50;;
23614;SDS011;11985;49.404;7.734;2023-04-03T14:05:33;5.53;;;1.80;;
23614;SDS011;11985;49.404;7.734;2023-04-03T14:10:34;4.32;;;1.45;;
23614;SDS011;11985;49.404;7.734;2023-04-03T14:15:37;4.60;;;1.70;;
23614;SDS011;11985;49.404;7.734;2023-04-03T14:20:39;2.33;;;1.45;;
23614;SDS011;11985;49.404;7.734;2023-04-03T14:25:41;2.20;;;1.38;;
23614;SDS011;11985;49.404;7.734;2023-04-03T14:30:45;6.90;;;1.70;;
23614;SDS011;11985;49.404;7.734;2023-04-03T14:40:51;2.67;;;1.20;;
23614;SDS011;11985;49.404;7.734;2023-04-03T14:45:54;1.63;;;1.02;;
23614;SDS011;11985;49.404;7.734;2023-04-03T14:50:56;4.82;;;1.60;;
23614;SDS011;11985;49.404;7.734;2023-04-03T14:55:58;3.83;;;1.45;;
23614;SDS011;11985;49.404;7.734;2023-04-03T15:01:01;5.93;;;1.55;;
23614;SDS011;11985;49.404;7.734;2023-04-03T15:06:02;3.47;;;1.48;;
23614;SDS011;11985;49.404;7.734;2023-04-03T15:11:04;4.88;;;1.73;;
23614;SDS011;11985;49.404;7.734;2023-04-03T15:16:11;3.75;;;1.35;;
23614;SDS011;11985;49.404;7.734;2023-04-03T15:21:16;5.60;;;1.88;;
23614;SDS011;11985;49.404;7.734;2023-04-03T15:26:17;3.95;;;1.42;;
23614;SDS011;11985;49.404;7.734;2023-04-03T15:31:20;4.28;;;1.40;;
23614;SDS011;11985;49.404;7.734;2023-04-03T15:36:22;7.65;;;1.95;;
23614;SDS011;11985;49.404;7.734;2023-04-03T15:41:23;3.42;;;1.60;;
23614;SDS011;11985;49.404;7.734;2023-04-03T15:46:26;3.58;;;1.45;;
23614;SDS011;11985;49.404;7.734;2023-04-03T15:51:27;3.28;;;1.50;;
23614;SDS011;11985;49.404;7.734;2023-04-03T15:56:29;2.45;;;1.40;;
23614;SDS011;11985;49.404;7.734;2023-04-03T16:01:32;3.38;;;1.80;;
23614;SDS011;11985;49.404;7.734;2023-04-03T16:06:34;4.82;;;1.65;;
23614;SDS011;11985;49.404;7.734;2023-04-03T16:11:36;3.75;;;1.10;;
23614;SDS011;11985;49.404;7.734;2023-04-03T16:16:40;4.45;;;1.92;;
23614;SDS011;11985;49.404;7.734;2023-04-03T16:21:42;4.93;;;1.92;;
23614;SDS011;11985;49.404;7.734;2023-04-03T16:26:43;3.53;;;1.40;;
23614;SDS011;11985;49.404;7.734;2023-04-03T16:31:46;3.03;;;1.50;;
23614;SDS011;11985;49.404;7.734;2023-04-03T16:36:48;4.03;;;1.50;;
23614;SDS011;11985;49.404;7.734;2023-04-03T16:41:50;3.35;;;1.45;;
23614;SDS011;11985;49.404;7.734;2023-04-03T16:46:52;2.55;;;1.45;;
23614;SDS011;11985;49.404;7.734;2023-04-03T16:51:54;2.28;;;1.33;;
23614;SDS011;11985;49.404;7.734;2023-04-03T16:56:56;3.10;;;1.38;;
23614;SDS011;11985;49.404;7.734;2023-04-03T17:01:58;2.35;;;1.45;;
23614;SDS011;11985;49.404;7.734;2023-04-03T17:07:00;3.10;;;1.63;;
23614;SDS011;11985;49.404;7.734;2023-04-03T17:12:05;7.53;;;3.42;;
23614;SDS011;11985;49.404;7.734;2023-04-03T17:17:08;5.28;;;2.25;;
23614;SDS011;11985;49.404;7.734;2023-04-03T17:22:10;8.73;;;3.50;;
23614;SDS011;11985;49.404;7.734;2023-04-03T17:27:12;7.25;;;3.53;;
23614;SDS011;11985;49.404;7.734;2023-04-03T17:32:15;5.30;;;2.53;;
23614;SDS011;11985;49.404;7.734;2023-04-03T17:37:16;4.40;;;2.67;;
23614;SDS011;11985;49.404;7.734;2023-04-03T17:42:18;7.88;;;3.47;;
23614;SDS011;11985;49.404;7.734;2023-04-03T17:47:21;10.68;;;4.05;;
23614;SDS011;11985;49.404;7.734;2023-04-03T17:52:24;5.72;;;2.42;;
23614;SDS011;11985;49.404;7.734;2023-04-03T17:57:27;4.65;;;2.47;;
23614;SDS011;11985;49.404;7.734;2023-04-03T18:02:31;6.97;;;2.28;;
23614;SDS011;11985;49.404;7.734;2023-04-03T18:07:33;5.15;;;2.45;;
23614;SDS011;11985;49.404;7.734;2023-04-03T18:12:37;6.97;;;2.55;;
23614;SDS011;11985;49.404;7.734;2023-04-03T18:17:42;10.55;;;2.67;;
23614;SDS011;11985;49.404;7.734;2023-04-03T18:22:45;8.93;;;2.73;;
23614;SDS011;11985;49.404;7.734;2023-04-03T18:27:46;4.07;;;1.80;;
23614;SDS011;11985;49.404;7.734;2023-04-03T18:32:50;3.47;;;1.70;;
23614;SDS011;11985;49.404;7.734;2023-04-03T18:37:51;5.05;;;2.17;;
23614;SDS011;11985;49.404;7.734;2023-04-03T18:42:53;8.65;;;1.80;;
23614;SDS011;11985;49.404;7.734;2023-04-03T18:47:55;6.20;;;2.13;;
23614;SDS011;11985;49.404;7.734;2023-04-03T18:52:57;5.40;;;2.25;;
23614;SDS011;11985;49.404;7.734;2023-04-03T18:57:59;4.65;;;2.03;;
23614;SDS011;11985;49.404;7.734;2023-04-03T19:03:02;3.30;;;1.27;;
23614;SDS011;11985;49.404;7.734;2023-04-03T19:08:04;5.60;;;2.20;;
23614;SDS011;11985;49.404;7.734;2023-04-03T19:13:06;6.18;;;1.60;;
23614;SDS011;11985;49.404;7.734;2023-04-03T19:18:09;5.45;;;1.65;;
23614;SDS011;11985;49.404;7.734;2023-04-03T19:23:10;2.42;;;1.30;;
23614;SDS011;11985;49.404;7.734;2023-04-03T19:28:12;3.95;;;1.55;;
23614;SDS011;11985;49.404;7.734;2023-04-03T19:33:15;3.60;;;1.25;;
23614;SDS011;11985;49.404;7.734;2023-04-03T19:38:17;3.28;;;1.33;;
23614;SDS011;11985;49.404;7.734;2023-04-03T19:43:18;2.92;;;1.50;;
23614;SDS011;11985;49.404;7.734;2023-04-03T19:48:21;3.47;;;1.35;;
23614;SDS011;11985;49.404;7.734;2023-04-03T19:53:23;3.92;;;1.40;;
23614;SDS011;11985;49.404;7.734;2023-04-03T19:58:28;5.72;;;1.55;;
23614;SDS011;11985;49.404;7.734;2023-04-03T20:03:30;6.97;;;1.60;;
23614;SDS011;11985;49.404;7.734;2023-04-03T20:08:32;7.70;;;2.65;;
23614;SDS011;11985;49.404;7.734;2023-04-03T20:13:34;8.73;;;3.25;;
23614;SDS011;11985;49.404;7.734;2023-04-03T20:18:38;5.15;;;1.33;;
23614;SDS011;11985;49.404;7.734;2023-04-03T20:23:41;4.67;;;1.43;;
23614;SDS011;11985;49.404;7.734;2023-04-03T20:28:44;5.88;;;1.98;;
23614;SDS011;11985;49.404;7.734;2023-04-03T20:33:46;4.55;;;1.80;;
23614;SDS011;11985;49.404;7.734;2023-04-03T20:38:48;3.90;;;1.67;;
23614;SDS011;11985;49.404;7.734;2023-04-03T20:43:51;3.95;;;1.60;;
23614;SDS011;11985;49.404;7.734;2023-04-03T20:48:54;3.83;;;1.08;;
23614;SDS011;11985;49.404;7.734;2023-04-03T20:53:56;6.00;;;1.50;;
23614;SDS011;11985;49.404;7.734;2023-04-03T20:58:58;4.43;;;1.30;;
23614;SDS011;11985;49.404;7.734;2023-04-03T21:04:04;2.75;;;1.55;;
23614;SDS011;11985;49.404;7.734;2023-04-03T21:20:29;2.70;;;1.40;;
23614;SDS011;11985;49.404;7.734;2023-04-03T21:25:31;3.88;;;1.25;;
23614;SDS011;11985;49.404;7.734;2023-04-03T21:30:33;5.85;;;1.92;;
23614;SDS011;11985;49.404;7.734;2023-04-03T21:35:36;5.30;;;1.60;;
23614;SDS011;11985;49.404;7.734;2023-04-03T21:40:37;6.10;;;1.63;;
23614;SDS011;11985;49.404;7.734;2023-04-03T21:45:39;4.05;;;1.52;;
23614;SDS011;11985;49.404;7.734;2023-04-03T21:50:42;3.38;;;1.60;;
23614;SDS011;11985;49.404;7.734;2023-04-03T21:55:50;2.92;;;1.50;;
23614;SDS011;11985;49.404;7.734;2023-04-03T22:00:52;6.00;;;1.80;;
23614;SDS011;11985;49.404;7.734;2023-04-03T22:05:58;3.00;;;1.40;;
23614;SDS011;11985;49.404;7.734;2023-04-03T22:16:01;4.65;;;1.63;;
23614;SDS011;11985;49.404;7.734;2023-04-03T22:21:05;2.50;;;1.45;;
23614;SDS011;11985;49.404;7.734;2023-04-03T22:26:07;3.53;;;1.50;;
23614;SDS011;11985;49.404;7.734;2023-04-03T22:31:10;2.85;;;1.40;;
23614;SDS011;11985;49.404;7.734;2023-04-03T22:36:14;4.20;;;1.60;;
23614;SDS011;11985;49.404;7.734;2023-04-03T22:41:16;5.78;;;1.67;;
23614;SDS011;11985;49.404;7.734;2023-04-03T22:46:17;7.28;;;1.67;;
23614;SDS011;11985;49.404;7.734;2023-04-03T22:51:21;7.05;;;1.50;;
23614;SDS011;11985;49.404;7.734;2023-04-03T22:56:22;8.27;;;1.75;;
23614;SDS011;11985;49.404;7.734;2023-04-03T23:01:24;5.55;;;2.00;;
23614;SDS011;11985;49.404;7.734;2023-04-03T23:06:26;3.72;;;1.48;;
23614;SDS011;11985;49.404;7.734;2023-04-03T23:11:28;2.85;;;1.60;;
23614;SDS011;11985;49.404;7.734;2023-04-03T23:16:29;4.57;;;1.88;;
23614;SDS011;11985;49.404;7.734;2023-04-03T23:21:33;3.00;;;1.70;;
23614;SDS011;11985;49.404;7.734;2023-04-03T23:26:34;3.05;;;1.40;;
23614;SDS011;11985;49.404;7.734;2023-04-03T23:31:36;6.13;;;1.40;;
23614;SDS011;11985;49.404;7.734;2023-04-03T23:36:39;4.75;;;2.03;;
23614;SDS011;11985;49.404;7.734;2023-04-03T23:41:40;4.30;;;1.80;;
23614;SDS011;11985;49.404;7.734;2023-04-03T23:46:42;4.90;;;1.80;;
23614;SDS011;11985;49.404;7.734;2023-04-03T23:51:45;6.90;;;1.90;;
23614;SDS011;11985;49.404;7.734;2023-04-03T23:56:48;2.47;;;1.40;;
